Time;durP1;ratioP1;P1;durP2;ratioP2;P2;SDS_P1;SDS_P2;PMS_P1;PMS_P2;Temp;Humidity;BMP_temperature;BMP_pressure;BME280_temperature;BME280_humidity;BME280_pressure;Samples;Min_cycle;Max_cycle;Signal;HPM_P1;HPM_P2
2022/09/04 00:02:02;;;;;;;6.00;4.32;;;;;;;16.79;93.19;100045.28;5012610;28;20034;-87
2022/09/04 00:04:29;;;;;;;6.13;4.15;;;;;;;16.86;92.29;100049.75;4994157;28;20038;-91
2022/09/04 00:07:26;;;;;;;7.10;4.60;;;;;;;16.77;92.90;100042.97;5011588;28;20028;-90
2022/09/04 00:09:58;;;;;;;5.13;4.28;;;;;;;16.82;92.91;100052.72;5004499;28;20479;-89
2022/09/04 00:12:28;;;;;;;7.80;4.22;;;;;;;16.78;93.33;100044.50;5009130;28;20046;-89
2022/09/04 00:15:02;;;;;;;5.80;4.22;;;;;;;16.77;96.78;100048.56;4994143;28;20120;-90
2022/09/04 00:17:50;;;;;;;6.45;4.05;;;;;;;16.76;100.00;100044.22;4992325;28;20038;-90
2022/09/04 00:20:31;;;;;;;8.43;4.40;;;;;;;16.84;99.95;100052.25;4987498;28;20399;-90
2022/09/04 00:23:19;;;;;;;6.82;4.82;;;;;;;16.69;100.00;100055.78;5009731;28;20457;-89
2022/09/04 00:26:03;;;;;;;5.30;4.15;;;;;;;16.71;99.91;100056.06;4994212;28;20399;-90
2022/09/04 00:28:50;;;;;;;5.38;4.28;;;;;;;16.71;98.84;100050.47;5010754;28;20073;-90
2022/09/04 00:31:57;;;;;;;4.97;4.32;;;;;;;16.63;97.63;100045.72;4976209;28;20034;-86
2022/09/04 00:35:00;;;;;;;5.63;4.20;;;;;;;16.66;97.07;100050.38;4976300;28;20042;-85
2022/09/04 00:37:31;;;;;;;4.90;4.18;;;;;;;16.67;96.48;100044.28;5011335;28;20038;-85
2022/09/04 00:40:13;;;;;;;5.40;4.55;;;;;;;16.70;95.93;100053.78;4989884;28;20510;-86
2022/09/04 00:43:00;;;;;;;6.10;4.65;;;;;;;16.60;96.24;100053.06;5011505;28;20034;-85
2022/09/04 00:45:57;;;;;;;4.93;4.10;;;;;;;16.62;96.13;100061.72;5007038;28;20030;-85
2022/09/04 00:48:59;;;;;;;7.35;4.50;;;;;;;16.61;96.21;100049.00;4972229;28;20134;-85
2022/09/04 00:51:34;;;;;;;6.18;4.30;;;;;;;16.64;96.06;100050.84;5010442;28;20048;-89
2022/09/04 00:54:34;;;;;;;6.32;4.03;;;;;;;16.69;95.57;100057.81;5011366;28;20036;-85
2022/09/04 00:57:26;;;;;;;7.25;4.78;;;;;;;16.66;95.84;100056.72;5007418;28;20045;-85
2022/09/04 01:00:07;;;;;;;4.72;4.22;;;;;;;16.70;96.55;100054.50;4994285;28;20041;-85
2022/09/04 01:14:38;;;;;;;5.72;4.82;;;;;;;16.54;97.68;100060.50;3319624;26;20041;-79
2022/09/04 01:17:40;;;;;;;7.20;4.43;;;;;;;16.50;97.39;100068.31;5044283;28;20037;-79
2022/09/04 01:20:20;;;;;;;6.30;4.35;;;;;;;16.50;96.98;100062.72;5042525;28;20072;-79
2022/09/04 01:23:17;;;;;;;8.35;4.70;;;;;;;16.45;97.87;100069.00;5054229;28;20045;-95
2022/09/04 01:26:08;;;;;;;4.93;4.43;;;;;;;16.40;97.65;100080.84;5037225;28;20044;-94
2022/09/04 01:28:35;;;;;;;9.00;4.78;;;;;;;16.33;98.15;100076.38;5032715;28;20510;-95
2022/09/04 01:31:22;;;;;;;5.57;5.05;;;;;;;16.26;98.76;100075.94;5016180;28;20088;-96
2022/09/04 01:34:05;;;;;;;7.43;5.05;;;;;;;16.25;98.26;100058.41;5031643;28;20069;-96
2022/09/04 01:36:52;;;;;;;5.85;4.85;;;;;;;16.25;98.58;100083.59;5033995;28;20046;-95
2022/09/04 01:39:20;;;;;;;7.13;4.70;;;;;;;16.27;97.95;100081.06;5052540;28;20596;-94
2022/09/04 01:41:46;;;;;;;5.15;4.65;;;;;;;16.22;98.72;100083.72;5034169;28;20036;-79
2022/09/04 01:44:12;;;;;;;6.22;4.93;;;;;;;16.20;99.11;100086.25;5040602;28;20417;-79
2022/09/04 01:47:03;;;;;;;6.43;4.72;;;;;;;16.15;98.90;100070.88;5031961;28;20030;-78
2022/09/04 01:49:35;;;;;;;5.40;4.43;;;;;;;16.09;99.45;100070.00;5026653;28;20029;-79
2022/09/04 01:52:07;;;;;;;5.20;4.65;;;;;;;16.06;100.00;100072.94;5016222;28;20040;-79
2022/09/04 01:54:50;;;;;;;6.10;5.20;;;;;;;15.98;100.00;100066.91;5034121;28;20108;-79
2022/09/04 01:57:29;;;;;;;7.18;4.85;;;;;;;15.86;100.00;100057.47;5036216;28;20123;-79
2022/09/04 02:00:11;;;;;;;5.90;4.70;;;;;;;15.92;100.00;100063.22;5032936;28;20116;-94
2022/09/04 02:02:59;;;;;;;6.65;5.10;;;;;;;15.77;100.00;100079.13;5034908;28;20128;-93
2022/09/04 02:05:47;;;;;;;6.38;4.60;;;;;;;15.77;100.00;100059.56;5030557;28;20043;-94
2022/09/04 02:08:39;;;;;;;5.53;4.30;;;;;;;15.73;100.00;100061.75;5031249;28;20398;-94
2022/09/04 02:11:18;;;;;;;5.82;4.85;;;;;;;15.72;100.00;100057.41;5024234;28;20341;-95
2022/09/04 02:14:01;;;;;;;6.75;5.00;;;;;;;15.65;100.00;100050.09;5026235;28;20034;-95
2022/09/04 02:16:42;;;;;;;7.25;5.30;;;;;;;15.63;100.00;100058.19;5025562;28;20060;-95
2022/09/04 02:19:20;;;;;;;6.20;4.57;;;;;;;15.56;100.00;100058.53;5027936;28;20095;-79
2022/09/04 02:22:11;;;;;;;5.20;4.70;;;;;;;15.59;100.00;100063.19;5028428;28;20670;-79
2022/09/04 02:25:08;;;;;;;5.80;4.90;;;;;;;15.48;100.00;100062.09;5044250;28;20064;-79
2022/09/04 02:27:44;;;;;;;5.85;5.15;;;;;;;15.47;100.00;100072.50;5028804;28;20542;-78
2022/09/04 02:30:12;;;;;;;6.03;5.43;;;;;;;15.54;100.00;100061.00;5027702;28;20038;-78
2022/09/04 02:32:48;;;;;;;5.55;4.90;;;;;;;15.59;100.00;100068.00;5029156;28;20477;-79
2022/09/04 02:35:25;;;;;;;7.38;5.75;;;;;;;15.58;100.00;100056.03;5028650;28;20046;-79
2022/09/04 02:38:24;;;;;;;7.88;5.78;;;;;;;15.60;100.00;100059.16;5028924;28;20033;-95
2022/09/04 02:40:59;;;;;;;6.22;4.72;;;;;;;15.72;100.00;100058.19;5030766;28;20034;-96
2022/09/04 02:43:24;;;;;;;6.45;5.28;;;;;;;15.77;100.00;100057.50;5029454;28;20037;-94
2022/09/04 02:46:18;;;;;;;7.03;5.20;;;;;;;15.80;100.00;100056.59;5031098;28;20030;-95
2022/09/04 02:48:59;;;;;;;6.05;5.20;;;;;;;15.81;100.00;100058.13;5029159;28;20037;-94
2022/09/04 02:51:52;;;;;;;7.57;5.20;;;;;;;15.80;100.00;100056.59;5025054;28;20026;-96
2022/09/04 02:54:17;;;;;;;6.80;5.50;;;;;;;15.84;100.00;100060.00;5029278;28;20068;-94
2022/09/04 02:56:59;;;;;;;7.53;5.30;;;;;;;15.85;100.00;100067.13;5031646;28;20060;-79
2022/09/04 02:59:40;;;;;;;5.32;4.82;;;;;;;15.94;100.00;100071.13;5021370;28;20116;-79
2022/09/04 03:02:27;;;;;;;6.43;5.05;;;;;;;16.01;100.00;100073.59;5027694;28;20045;-79
2022/09/04 03:05:24;;;;;;;5.63;5.03;;;;;;;16.07;100.00;100068.91;5028039;28;20393;-79
2022/09/04 03:08:01;;;;;;;6.90;5.05;;;;;;;16.08;100.00;100076.81;5021752;28;20057;-81
2022/09/04 03:10:39;;;;;;;6.40;5.45;;;;;;;16.13;100.00;100078.19;5025827;28;20044;-79
2022/09/04 03:13:19;;;;;;;5.63;5.07;;;;;;;16.16;100.00;100078.03;5022495;28;20049;-79
2022/09/04 03:16:03;;;;;;;7.30;5.40;;;;;;;16.18;100.00;100083.13;5018307;28;20036;-93
2022/09/04 03:18:48;;;;;;;;;;;;;;;16.11;100.00;100101.06;5043155;28;20099;-94
2022/09/04 03:21:26;;;;;;;5.72;4.88;;;;;;;16.10;100.00;100098.72;5026814;28;19924;-95
2022/09/04 03:24:18;;;;;;;5.70;5.00;;;;;;;16.14;100.00;100088.13;5039561;28;20155;-96
2022/09/04 03:26:50;;;;;;;6.80;5.20;;;;;;;16.16;100.00;100102.44;5010236;28;20125;-96
2022/09/04 03:29:38;;;;;;;6.45;5.15;;;;;;;16.17;100.00;100096.38;5012622;28;20099;-95
2022/09/04 03:32:24;;;;;;;5.55;4.97;;;;;;;16.19;100.00;100098.69;5033548;28;20038;-95
2022/09/04 03:35:07;;;;;;;5.75;4.60;;;;;;;16.17;100.00;100090.78;5031654;28;20073;-79
2022/09/04 03:38:03;;;;;;;6.85;5.25;;;;;;;16.20;100.00;100101.03;5027084;28;20029;-79
2022/09/04 03:40:32;;;;;;;7.75;5.35;;;;;;;16.21;100.00;100108.16;5023877;28;20033;-79
2022/09/04 03:43:12;;;;;;;5.68;5.10;;;;;;;16.26;100.00;100109.53;5026898;28;20033;-79
2022/09/04 03:46:06;;;;;;;8.52;4.80;;;;;;;16.34;100.00;100111.50;5029012;28;20052;-79
2022/09/04 03:48:49;;;;;;;5.80;4.65;;;;;;;16.32;100.00;100110.44;5028712;28;20037;-79
2022/09/04 03:51:24;;;;;;;5.65;4.63;;;;;;;16.36;100.00;100102.66;5026851;28;20438;-95
2022/09/04 03:54:07;;;;;;;10.13;5.28;;;;;;;16.32;100.00;100102.03;5018251;28;20025;-79
2022/09/04 03:56:35;;;;;;;7.00;5.23;;;;;;;16.29;100.00;100092.59;5026035;28;20479;-78
2022/09/04 03:59:07;;;;;;;6.95;5.22;;;;;;;16.25;100.00;100091.19;5028478;28;20049;-79
2022/09/04 04:01:38;;;;;;;7.10;4.90;;;;;;;16.31;100.00;100108.88;5021041;28;20390;-79
2022/09/04 04:04:35;;;;;;;5.97;4.88;;;;;;;16.33;100.00;100112.00;5027509;28;20037;-79
2022/09/04 04:07:21;;;;;;;8.18;5.65;;;;;;;16.30;100.00;100112.91;5027658;28;20045;-79
2022/09/04 04:09:58;;;;;;;5.97;5.38;;;;;;;16.23;100.00;100110.47;5000382;28;20052;-79
2022/09/04 04:12:41;;;;;;;6.80;5.35;;;;;;;16.19;100.00;100121.06;5038454;22;20057;-85
2022/09/04 04:15:12;;;;;;;6.32;5.25;;;;;;;16.14;100.00;100124.50;5007069;28;20041;-86
2022/09/04 04:18:03;;;;;;;6.30;5.43;;;;;;;16.17;100.00;100129.19;5009564;28;20084;-86
2022/09/04 04:21:02;;;;;;;7.00;5.25;;;;;;;16.17;100.00;100123.59;5007989;28;20059;-85
2022/09/04 04:24:01;;;;;;;6.80;4.97;;;;;;;16.24;100.00;100123.22;5006041;28;20038;-85
2022/09/04 04:26:52;;;;;;;7.45;5.32;;;;;;;16.21;100.00;100124.97;5006361;28;20072;-86
2022/09/04 04:29:58;;;;;;;6.63;5.97;;;;;;;16.11;100.00;100122.66;5010419;28;20073;-85
2022/09/04 04:32:31;;;;;;;6.53;5.80;;;;;;;16.07;100.00;100124.84;5007847;28;20325;-86
2022/09/04 04:35:03;;;;;;;6.13;5.20;;;;;;;16.12;100.00;100132.63;5010952;28;20448;-86
2022/09/04 04:37:42;;;;;;;5.85;5.00;;;;;;;16.19;100.00;100137.88;5016600;28;20379;-85
2022/09/04 04:40:19;;;;;;;5.38;4.88;;;;;;;16.23;100.00;100136.44;5027007;28;20034;-85
2022/09/04 04:43:14;;;;;;;5.80;5.03;;;;;;;16.31;100.00;100134.06;5010955;28;20057;-85
2022/09/04 04:45:49;;;;;;;6.30;5.70;;;;;;;16.40;100.00;100130.47;5014659;28;20489;-85
2022/09/04 06:47:06;;;;;;;7.93;7.03;;;;;;;17.98;100.00;100233.63;5019156;28;20034;-82
2022/09/04 06:49:58;;;;;;;8.55;7.00;;;;;;;18.11;100.00;100230.56;5027663;28;20030;-83
2022/09/04 06:52:50;;;;;;;7.82;6.88;;;;;;;18.27;100.00;100244.09;5024919;28;20034;-83
2022/09/04 06:55:52;;;;;;;8.60;6.90;;;;;;;18.34;100.00;100243.69;5024451;28;20111;-75
2022/09/04 06:58:37;;;;;;;8.48;7.68;;;;;;;18.30;100.00;100231.88;4961794;28;20049;-75
2022/09/04 07:01:10;;;;;;;8.52;7.68;;;;;;;18.28;100.00;100237.19;5026114;28;20033;-75
2022/09/04 07:03:38;;;;;;;;;;;;;;;18.39;100.00;100247.88;5020746;28;20477;-75
2022/09/04 07:06:17;;;;;;;8.32;7.43;;;;;;;18.35;100.00;100245.25;5022396;28;20015;-75
2022/09/04 07:09:03;;;;;;;8.65;7.75;;;;;;;18.28;100.00;100242.06;5014386;28;20087;-75
2022/09/04 07:11:44;;;;;;;8.00;7.20;;;;;;;18.32;100.00;100237.78;5020359;28;20049;-75
2022/09/04 07:14:52;;;;;;;9.15;7.68;;;;;;;18.29;100.00;100241.56;5024713;28;20072;-74
2022/09/04 07:17:18;;;;;;;8.18;7.38;;;;;;;18.36;100.00;100246.78;4994834;28;20136;-75
2022/09/04 07:20:11;;;;;;;7.95;7.25;;;;;;;18.35;100.00;100250.88;5021951;28;20116;-75
2022/09/04 07:22:52;;;;;;;8.50;7.53;;;;;;;18.43;100.00;100248.44;5024880;28;20049;-76
2022/09/04 07:25:44;;;;;;;8.82;7.70;;;;;;;18.55;100.00;100259.41;5026496;28;20041;-76
2022/09/04 07:28:18;;;;;;;8.00;7.20;;;;;;;18.59;100.00;100265.59;5026926;28;20049;-76
2022/09/04 07:30:55;;;;;;;8.02;6.80;;;;;;;18.74;100.00;100256.34;5019993;28;20041;-76
2022/09/04 07:33:44;;;;;;;7.75;6.95;;;;;;;18.95;100.00;100263.56;5017064;28;20045;-75
2022/09/04 07:36:19;;;;;;;7.93;7.13;;;;;;;19.16;100.00;100255.94;5021950;28;20053;-76
2022/09/04 07:39:13;;;;;;;8.60;7.50;;;;;;;19.30;100.00;100269.16;5019201;28;20100;-76
2022/09/04 07:41:58;;;;;;;7.40;6.70;;;;;;;19.38;100.00;100273.09;4994704;28;20034;-76
2022/09/04 07:44:38;;;;;;;8.27;7.35;;;;;;;19.37;98.40;100289.19;5020745;28;20045;-76
2022/09/04 07:47:34;;;;;;;8.73;7.63;;;;;;;19.28;99.75;100292.16;5021126;28;20514;-76
2022/09/04 07:50:13;;;;;;;7.50;6.45;;;;;;;19.35;99.32;100291.75;5012922;28;20517;-76
2022/09/04 07:53:13;;;;;;;8.13;7.20;;;;;;;19.47;98.96;100290.66;5007858;28;20670;-75
2022/09/04 07:55:46;;;;;;;8.57;7.25;;;;;;;19.68;97.05;100285.00;5007713;28;20074;-76
2022/09/04 07:58:31;;;;;;;8.63;7.72;;;;;;;20.02;94.51;100281.28;5022122;28;20042;-76
2022/09/04 08:01:14;;;;;;;7.28;6.57;;;;;;;20.39;94.58;100276.56;5023501;28;20030;-76
2022/09/04 08:03:54;;;;;;;8.43;6.72;;;;;;;20.77;90.93;100277.38;5025463;28;20053;-76
2022/09/04 08:06:29;;;;;;;8.07;6.80;;;;;;;21.10;89.53;100271.97;5028066;28;20062;-76
2022/09/04 08:09:06;;;;;;;7.30;6.47;;;;;;;21.35;87.75;100282.38;5024741;28;20050;-76
2022/09/04 08:11:44;;;;;;;7.68;6.90;;;;;;;21.22;87.02;100272.81;5023950;28;20083;-77
2022/09/04 08:14:44;;;;;;;7.18;6.47;;;;;;;21.34;87.06;100280.84;5024582;28;20041;-76
2022/09/04 08:17:46;;;;;;;7.40;6.55;;;;;;;21.54;86.37;100288.38;5024583;28;20438;-75
2022/09/04 08:20:33;;;;;;;7.47;6.20;;;;;;;21.81;86.13;100278.44;5004784;28;20054;-76
2022/09/04 08:23:19;;;;;;;7.30;6.55;;;;;;;22.16;83.18;100292.19;5027266;28;20123;-77
2022/09/04 08:26:13;;;;;;;7.68;6.95;;;;;;;22.28;79.46;100300.16;5024050;28;20115;-76
2022/09/04 08:28:38;;;;;;;;;;;;;;;22.39;79.44;100304.28;5022970;28;20179;-77
2022/09/04 08:31:27;;;;;;;9.27;6.30;;;;;;;22.57;78.40;100300.94;5020574;28;20356;-83
2022/09/04 08:34:15;;;;;;;8.05;6.47;;;;;;;22.68;77.65;100292.47;4990544;28;20073;-83
2022/09/04 08:36:46;;;;;;;8.05;7.25;;;;;;;22.59;79.22;100301.97;5013249;28;20125;-82
2022/09/04 08:39:15;;;;;;;7.68;6.55;;;;;;;22.69;76.99;100294.03;5013841;28;20052;-83
2022/09/04 08:42:04;;;;;;;9.90;6.60;;;;;;;22.90;76.59;100312.28;5023856;28;20042;-83
2022/09/04 08:45:02;;;;;;;10.30;7.15;;;;;;;22.94;74.57;100309.19;5022007;28;20044;-81
2022/09/04 08:47:58;;;;;;;7.18;6.47;;;;;;;23.13;75.66;100296.06;5028643;28;20108;-83
2022/09/04 08:50:55;;;;;;;9.38;7.35;;;;;;;23.17;75.00;100305.03;5024820;28;20033;-83
2022/09/04 08:53:25;;;;;;;8.68;7.10;;;;;;;23.17;75.62;100305.78;5028363;28;20053;-83
2022/09/04 08:56:29;;;;;;;11.32;6.93;;;;;;;23.48;74.95;100306.78;5031160;28;20029;-83
2022/09/04 08:59:22;;;;;;;8.40;6.38;;;;;;;23.68;75.04;100309.28;4973170;28;20132;-83
2022/09/04 09:01:56;;;;;;;8.63;6.57;;;;;;;23.39;73.85;100307.03;5017325;28;20735;-83
2022/09/04 09:04:47;;;;;;;8.32;6.80;;;;;;;23.49;73.33;100308.31;5016750;28;20305;-83
2022/09/04 09:07:25;;;;;;;8.15;6.93;;;;;;;23.65;71.72;100308.28;5015415;28;20045;-83
2022/09/04 09:10:13;;;;;;;8.48;7.10;;;;;;;23.50;73.56;100312.69;5021590;28;20037;-76
2022/09/04 09:13:16;;;;;;;7.22;6.53;;;;;;;23.72;73.75;100312.59;5021150;28;20121;-76
2022/09/04 09:16:10;;;;;;;7.70;6.90;;;;;;;23.87;70.77;100318.72;5019964;28;20444;-76
2022/09/04 09:18:36;;;;;;;;;;;;;;;23.87;72.42;100321.53;5023358;28;20037;-76
2022/09/04 09:21:10;;;;;;;7.20;6.43;;;;;;;23.68;72.55;100323.44;5023730;28;20064;-76
2022/09/04 09:23:57;;;;;;;9.35;6.88;;;;;;;23.39;74.95;100315.53;5022872;28;20046;-76
2022/09/04 09:26:25;;;;;;;7.88;7.07;;;;;;;23.02;77.06;100310.97;5021103;28;20034;-76
2022/09/04 09:29:15;;;;;;;7.20;6.55;;;;;;;23.16;79.24;100324.06;5022179;28;20034;-76
2022/09/04 09:31:41;;;;;;;9.43;6.20;;;;;;;23.65;76.58;100324.47;5016633;28;20510;-77
2022/09/04 09:34:23;;;;;;;7.47;6.70;;;;;;;24.09;74.06;100320.66;5016144;28;20038;-77
2022/09/04 09:37:04;;;;;;;7.37;6.67;;;;;;;24.23;73.50;100318.78;5015092;28;20076;-76
2022/09/04 09:39:50;;;;;;;7.90;7.13;;;;;;;24.27;71.50;100322.13;5029349;28;20025;-77
2022/09/04 09:42:31;;;;;;;6.90;6.28;;;;;;;24.30;73.44;100312.56;5018603;28;20467;-76
2022/09/04 09:45:21;;;;;;;7.47;6.78;;;;;;;24.58;72.13;100313.91;5026568;28;20048;-76
2022/09/04 09:48:20;;;;;;;8.35;6.72;;;;;;;24.76;71.77;100320.97;4998471;28;20030;-76
2022/09/04 09:51:20;;;;;;;7.55;6.80;;;;;;;24.58;70.77;100324.50;5024443;28;20045;-77
2022/09/04 09:54:04;;;;;;;6.55;5.95;;;;;;;24.55;74.17;100322.69;5020605;28;20037;-76
2022/09/04 09:56:35;;;;;;;6.57;5.82;;;;;;;25.01;71.89;100322.59;5021687;28;20080;-76
2022/09/04 09:59:22;;;;;;;7.45;6.68;;;;;;;25.38;68.80;100318.34;5022928;28;20037;-76
2022/09/04 10:02:11;;;;;;;9.48;6.50;;;;;;;25.77;69.46;100327.19;5021172;28;20099;-76
2022/09/04 10:04:56;;;;;;;6.97;6.28;;;;;;;25.62;65.57;100326.88;5019827;28;20041;-76
2022/09/04 10:07:58;;;;;;;6.53;5.93;;;;;;;25.79;67.01;100335.97;5018620;28;20025;-76
2022/09/04 10:10:26;;;;;;;7.53;6.82;;;;;;;25.35;67.63;100333.59;5022912;28;20034;-76
2022/09/04 10:13:10;;;;;;;8.05;7.22;;;;;;;25.38;67.98;100336.16;5019793;28;20037;-76
2022/09/04 10:15:54;;;;;;;7.57;6.78;;;;;;;25.38;67.75;100341.06;5021036;28;20120;-76
2022/09/04 10:19:00;;;;;;;8.45;6.30;;;;;;;25.47;67.67;100326.50;5022882;28;20132;-76
2022/09/04 10:22:07;;;;;;;6.88;6.28;;;;;;;25.85;65.82;100311.06;5005568;28;20628;-76
2022/09/04 10:24:42;;;;;;;9.45;6.70;;;;;;;26.00;64.85;100317.06;5016784;28;20029;-74
2022/09/04 10:27:34;;;;;;;8.38;6.70;;;;;;;25.71;67.45;100326.50;5021702;28;20438;-74
2022/09/04 10:30:06;;;;;;;7.18;6.47;;;;;;;25.40;66.85;100342.06;5003915;28;20052;-74
2022/09/04 10:32:31;;;;;;;8.20;7.13;;;;;;;24.98;68.00;100340.69;5023553;28;20037;-75
2022/09/04 10:35:20;;;;;;;7.30;6.70;;;;;;;24.94;70.01;100340.22;5019259;28;20048;-74
2022/09/04 10:38:14;;;;;;;7.57;6.82;;;;;;;25.16;66.74;100327.06;5019619;28;20049;-74
2022/09/04 10:40:51;;;;;;;7.75;7.05;;;;;;;25.41;66.50;100328.63;5020117;28;20056;-74
2022/09/04 10:43:54;;;;;;;8.32;7.22;;;;;;;25.25;66.45;100326.72;5019865;28;20050;-81
2022/09/04 10:46:42;;;;;;;8.33;7.53;;;;;;;25.01;68.63;100324.66;5010865;28;20120;-81
2022/09/04 10:49:39;;;;;;;9.45;7.15;;;;;;;25.41;67.38;100323.72;4995915;28;20327;-82
2022/09/04 10:52:35;;;;;;;7.95;7.10;;;;;;;25.57;66.03;100321.25;5018839;28;20406;-82
2022/09/04 10:55:22;;;;;;;8.20;6.47;;;;;;;25.91;65.02;100311.78;5015853;28;20041;-81
2022/09/04 10:58:03;;;;;;;8.10;6.85;;;;;;;25.77;64.19;100320.72;5012307;28;20081;-81
2022/09/04 11:01:17;;;;;;;8.63;7.20;;;;;;;25.55;63.91;100313.28;5017208;28;20049;-82
2022/09/04 11:04:25;;;;;;;8.23;7.43;;;;;;;25.43;63.45;100323.97;5017187;28;20057;-82
2022/09/04 11:06:57;;;;;;;8.25;7.25;;;;;;;25.76;64.52;100319.22;4990217;28;20120;-82
2022/09/04 11:09:42;;;;;;;8.55;7.75;;;;;;;25.89;63.58;100317.22;5008072;28;20592;-82
2022/09/04 11:12:28;;;;;;;8.60;7.78;;;;;;;25.99;62.37;100314.78;5005996;28;20045;-82
2022/09/04 11:15:30;;;;;;;8.82;8.00;;;;;;;26.06;64.02;100319.06;5014031;28;20042;-82
2022/09/04 11:18:05;;;;;;;8.65;7.43;;;;;;;26.10;64.17;100313.84;5017350;28;20033;-82
2022/09/04 11:21:08;;;;;;;7.95;7.05;;;;;;;26.05;64.72;100306.16;5014074;28;20117;-82
2022/09/04 11:23:48;;;;;;;8.70;7.60;;;;;;;26.43;63.14;100302.00;5014559;28;20056;-82
2022/09/04 11:26:35;;;;;;;8.35;7.65;;;;;;;26.38;62.65;100312.16;5016156;28;20558;-83
2022/09/04 11:29:29;;;;;;;8.80;7.88;;;;;;;26.23;62.03;100311.09;5015081;28;20073;-81
2022/09/04 11:32:15;;;;;;;10.80;7.82;;;;;;;26.36;63.03;100306.25;5006119;28;20065;-82
2022/09/04 11:34:47;;;;;;;9.07;8.20;;;;;;;26.38;61.83;100311.38;5016187;28;20080;-81
2022/09/04 11:37:21;;;;;;;8.52;7.63;;;;;;;26.17;63.28;100318.91;5018552;28;20034;-82
2022/09/04 11:40:11;;;;;;;8.63;7.82;;;;;;;25.99;63.59;100315.53;5022448;28;20041;-82
2022/09/04 11:42:43;;;;;;;10.75;8.48;;;;;;;26.20;62.34;100323.56;5023337;28;20087;-82
2022/09/04 11:45:25;;;;;;;8.48;7.68;;;;;;;26.28;61.18;100318.78;5023438;28;20045;-81
2022/09/04 11:48:16;;;;;;;8.50;7.70;;;;;;;26.58;61.29;100310.03;5007607;28;20574;-81
2022/09/04 11:50:58;;;;;;;8.32;7.63;;;;;;;26.83;60.62;100305.72;5025083;28;20061;-81
2022/09/04 11:53:45;;;;;;;9.07;7.75;;;;;;;27.02;60.29;100311.38;5020892;28;20128;-81
2022/09/04 11:56:13;;;;;;;10.05;8.55;;;;;;;26.96;59.95;100314.34;5024895;28;20056;-81
2022/09/04 11:58:59;;;;;;;9.50;8.60;;;;;;;26.53;60.80;100314.50;5022213;28;20514;-82
2022/09/04 12:01:25;;;;;;;9.38;8.48;;;;;;;26.36;61.08;100314.00;5009829;28;20053;-74
2022/09/04 12:04:21;;;;;;;9.30;8.50;;;;;;;26.09;61.63;100317.97;5017919;28;20045;-74
2022/09/04 12:07:11;;;;;;;8.63;7.90;;;;;;;25.97;62.47;100306.78;5022029;28;20041;-75
2022/09/04 12:09:50;;;;;;;9.07;8.27;;;;;;;25.85;61.64;100305.38;5019349;28;20047;-76
2022/09/04 12:12:30;;;;;;;9.05;8.18;;;;;;;25.90;61.94;100289.56;5019186;28;20121;-75
2022/09/04 12:15:05;;;;;;;8.98;8.18;;;;;;;26.28;60.28;100296.81;5025701;28;20045;-75
2022/09/04 12:17:48;;;;;;;9.75;8.75;;;;;;;26.63;59.19;100306.34;5016914;28;20554;-76
2022/09/04 12:20:46;;;;;;;8.98;8.07;;;;;;;26.49;57.52;100296.97;5019202;28;20120;-76
2022/09/04 12:23:24;;;;;;;10.38;8.77;;;;;;;26.18;59.41;100304.16;5018695;28;21414;-76
2022/09/04 12:26:20;;;;;;;9.38;8.57;;;;;;;26.00;60.39;100305.69;5024087;28;20498;-76
2022/09/04 12:29:09;;;;;;;9.18;8.30;;;;;;;25.65;61.18;100297.38;5025449;28;20103;-76
2022/09/04 12:32:10;;;;;;;9.55;8.75;;;;;;;25.46;61.84;100293.72;5024460;28;20111;-76
2022/09/04 12:34:53;;;;;;;9.70;8.80;;;;;;;25.75;64.06;100283.56;5014582;28;20873;-76
2022/09/04 12:37:42;;;;;;;9.77;8.98;;;;;;;26.67;63.69;100299.00;5019826;28;20405;-83
2022/09/04 12:40:23;;;;;;;9.07;8.27;;;;;;;26.73;57.64;100293.25;5020465;28;20048;-83
2022/09/04 12:43:15;;;;;;;9.88;8.65;;;;;;;26.50;58.06;100287.13;5023525;28;20072;-83
2022/09/04 12:46:13;;;;;;;9.27;8.38;;;;;;;26.35;58.61;100286.88;5022375;28;20065;-82
2022/09/04 12:49:25;;;;;;;8.88;8.18;;;;;;;26.71;57.53;100285.25;5021562;28;20280;-82
2022/09/04 12:52:16;;;;;;;9.23;8.32;;;;;;;26.82;58.23;100276.50;5020457;28;20045;-83
2022/09/04 12:54:54;;;;;;;9.52;8.63;;;;;;;27.17;56.86;100266.06;5023347;28;20045;-83
2022/09/04 12:57:38;;;;;;;9.50;8.40;;;;;;;27.21;56.99;100260.81;5024125;28;20071;-83
2022/09/04 13:00:08;;;;;;;9.63;8.45;;;;;;;27.17;56.94;100268.91;5021126;28;20040;-81
2022/09/04 13:02:52;;;;;;;9.05;8.15;;;;;;;27.05;56.96;100270.44;5023474;28;20033;-83
2022/09/04 13:05:30;;;;;;;9.65;8.75;;;;;;;26.77;57.73;100268.81;5021407;28;20060;-82
2022/09/04 13:08:17;;;;;;;9.30;8.40;;;;;;;26.36;58.24;100263.59;5007109;28;20029;-82
2022/09/04 13:10:59;;;;;;;9.48;8.68;;;;;;;26.42;60.42;100267.09;5002422;28;20038;-83
2022/09/04 13:13:47;;;;;;;9.70;8.65;;;;;;;26.35;58.77;100275.50;5018948;28;20451;-82
2022/09/04 13:16:28;;;;;;;8.57;7.88;;;;;;;26.04;58.23;100276.22;5026699;28;20430;-82
2022/09/04 13:19:11;;;;;;;10.55;8.35;;;;;;;25.83;59.49;100273.91;5022423;28;20049;-82
2022/09/04 13:21:58;;;;;;;9.30;8.40;;;;;;;25.57;60.35;100273.72;5021070;28;20045;-83
2022/09/04 13:24:40;;;;;;;10.30;9.40;;;;;;;25.53;61.66;100265.50;5021138;28;20045;-82
2022/09/04 13:27:14;;;;;;;9.93;9.02;;;;;;;25.38;60.34;100270.06;5023622;28;20045;-82
2022/09/04 13:29:45;;;;;;;10.20;9.30;;;;;;;25.19;61.75;100277.78;5024123;28;20033;-84
2022/09/04 13:32:38;;;;;;;10.07;9.18;;;;;;;25.31;63.19;100274.28;5027941;28;20021;-83
2022/09/04 13:35:11;;;;;;;10.02;9.02;;;;;;;24.98;61.93;100264.06;5022115;28;20060;-83
2022/09/04 13:38:01;;;;;;;10.75;9.65;;;;;;;24.76;62.76;100272.75;5021337;28;20132;-80
2022/09/04 13:40:34;;;;;;;10.10;9.02;;;;;;;24.72;62.85;100280.78;5019596;28;20037;-82
2022/09/04 13:43:37;;;;;;;9.95;9.05;;;;;;;25.12;62.86;100278.34;5022808;28;20073;-83
2022/09/04 13:46:06;;;;;;;9.32;8.50;;;;;;;25.57;62.78;100273.72;5018999;28;20056;-82
2022/09/04 13:48:39;;;;;;;9.43;8.50;;;;;;;25.89;60.09;100276.66;5023194;28;20037;-86
2022/09/04 13:51:23;;;;;;;9.75;8.95;;;;;;;25.94;58.51;100275.81;5008222;28;20446;-82
2022/09/04 13:54:16;;;;;;;9.50;8.70;;;;;;;25.97;58.40;100281.19;5024269;28;20068;-84
2022/09/04 13:56:53;;;;;;;8.95;8.15;;;;;;;26.08;58.26;100285.19;5008535;28;20066;-84
2022/09/04 13:59:19;;;;;;;9.32;8.43;;;;;;;26.03;58.81;100286.81;5025251;28;20033;-84
2022/09/04 14:01:48;;;;;;;9.07;8.27;;;;;;;26.24;58.43;100272.84;5014565;28;20032;-83
2022/09/04 14:04:18;;;;;;;9.07;8.38;;;;;;;26.58;58.03;100287.25;5025297;28;20041;-86
2022/09/04 14:06:44;;;;;;;9.13;8.25;;;;;;;26.86;55.85;100288.34;5027728;28;20498;-84
2022/09/04 14:09:10;;;;;;;9.35;8.48;;;;;;;27.03;55.59;100285.22;5027587;28;20095;-85
2022/09/04 14:12:14;;;;;;;8.75;7.95;;;;;;;27.15;57.53;100280.06;5028680;28;20041;-85
2022/09/04 14:15:32;;;;;;;9.00;8.20;;;;;;;27.21;54.54;100290.06;5029424;28;20495;-85
2022/09/04 14:18:42;;;;;;;9.25;8.35;;;;;;;26.59;56.14;100291.66;4989592;28;20418;-85
2022/09/04 14:21:16;;;;;;;8.40;7.60;;;;;;;26.61;55.68;100294.75;5031396;28;20497;-84
2022/09/04 14:24:19;;;;;;;9.10;8.30;;;;;;;26.59;56.20;100303.81;5027331;28;20041;-83
2022/09/04 14:26:56;;;;;;;8.90;8.18;;;;;;;26.34;54.49;100293.84;5028726;28;20073;-84
2022/09/04 14:29:51;;;;;;;8.20;7.50;;;;;;;26.20;56.10;100297.97;5031276;28;20045;-84
2022/09/04 14:32:19;;;;;;;9.55;7.95;;;;;;;26.44;55.89;100303.53;5023248;28;20053;-85
2022/09/04 14:35:02;;;;;;;9.25;8.45;;;;;;;26.39;55.51;100290.94;5027081;28;20144;-84
2022/09/04 14:37:46;;;;;;;8.77;7.97;;;;;;;26.11;56.72;100310.47;5028948;28;20041;-84
2022/09/04 14:40:24;;;;;;;8.82;8.05;;;;;;;26.23;55.50;100306.19;5030140;28;20045;-85
2022/09/04 14:43:01;;;;;;;8.85;8.05;;;;;;;26.09;55.05;100312.28;5027693;28;20045;-85
2022/09/04 14:45:29;;;;;;;8.88;7.97;;;;;;;25.78;55.93;100311.69;5030588;28;20176;-85
2022/09/04 14:48:06;;;;;;;8.07;7.38;;;;;;;25.46;56.98;100314.38;5030133;28;20133;-84
2022/09/04 14:50:43;;;;;;;7.90;7.20;;;;;;;25.20;58.24;100316.19;5030685;28;20029;-86
2022/09/04 14:53:09;;;;;;;8.10;7.30;;;;;;;25.28;58.70;100315.06;5030014;28;20041;-85